Time;durP1;ratioP1;P1;durP2;ratioP2;P2;SDS_P1;SDS_P2;PMS_P1;PMS_P2;Temp;Humidity;BMP_temperature;BMP_pressure;BME280_temperature;BME280_humidity;BME280_pressure;Samples;Min_cycle;Max_cycle;Signal;HPM_P1;HPM_P2
2022/01/05 00:02:06;;;;;;;1.35;1.25;;;9.50;61.30;;;7.96;66.49;99282.75;8392148;28;20055;-86
2022/01/05 00:06:28;;;;;;;1.00;1.00;;;9.50;61.20;;;7.91;66.39;99271.00;8417349;28;20126;-86
2022/01/05 00:10:50;;;;;;;2.05;1.33;;;9.50;61.20;;;7.89;66.30;99275.50;8415888;28;20111;-86
2022/01/05 00:15:11;;;;;;;1.70;1.13;;;9.50;61.10;;;7.60;66.21;99236.69;8423739;28;20032;-86
2022/01/05 00:19:34;;;;;;;1.35;1.25;;;9.40;61.10;;;7.83;66.49;99279.34;8415908;28;20544;-86
2022/01/05 00:23:56;;;;;;;3.42;1.13;;;9.40;60.90;;;7.86;66.37;99281.72;8414298;28;20032;-86
2022/01/05 00:28:17;;;;;;;1.00;1.00;;;9.30;60.80;;;7.80;66.19;99279.53;8403657;28;20093;-87
2022/01/05 00:32:39;;;;;;;1.73;1.10;;;9.20;60.80;;;7.69;66.27;99274.22;8399437;28;20127;-86
2022/01/05 00:37:01;;;;;;;1.20;1.10;;;9.30;60.90;;;7.62;66.22;99265.19;8414817;28;20115;-87
2022/01/05 00:41:23;;;;;;;0.90;0.90;;;9.20;60.80;;;7.67;66.28;99292.53;8399725;28;20036;-86
2022/01/05 00:45:45;;;;;;;1.92;1.60;;;9.20;60.90;;;7.63;66.23;99303.22;8414386;28;20115;-86
2022/01/05 00:50:06;;;;;;;2.45;1.15;;;9.20;60.90;;;7.59;66.03;99302.59;8413433;28;20024;-86
2022/01/05 00:54:28;;;;;;;1.27;1.17;;;9.10;60.90;;;7.46;66.09;99270.56;8419633;28;20123;-86
2022/01/05 00:58:50;;;;;;;1.65;1.45;;;9.10;61.00;;;7.50;66.18;99277.19;8409936;28;20461;-86
2022/01/05 01:03:12;;;;;;;2.40;1.50;;;9.10;61.20;;;7.37;66.18;99246.03;8417321;28;20127;-86
2022/01/05 01:07:34;;;;;;;1.92;1.52;;;9.00;61.20;;;7.57;66.11;99277.66;8413416;28;20115;-86
2022/01/05 01:11:55;;;;;;;1.50;1.40;;;9.00;61.20;;;7.45;66.42;99264.53;8405380;28;20761;-86
2022/01/05 01:16:19;;;;;;;2.72;1.40;;;9.00;61.10;;;7.39;66.09;99259.72;8413111;28;20127;-87
2022/01/05 01:20:41;;;;;;;1.17;1.08;;;9.00;61.10;;;7.39;66.07;99264.94;8415254;28;20123;-86
2022/01/05 01:25:05;;;;;;;1.40;1.30;;;8.90;60.90;;;7.39;65.86;99283.09;8420729;28;20118;-86
2022/01/05 01:29:27;;;;;;;2.22;1.08;;;8.90;60.90;;;7.23;66.40;99267.69;8404270;28;20035;-86
2022/01/05 01:33:48;;;;;;;2.22;1.27;;;8.90;61.00;;;7.24;65.91;99271.13;8421983;28;20107;-86
2022/01/05 01:38:10;;;;;;;2.97;1.40;;;8.90;61.80;;;7.31;66.22;99282.78;8401632;28;20115;-86
2022/01/05 01:42:33;;;;;;;1.73;1.38;;;8.90;61.20;;;7.28;66.41;99277.78;8416334;28;20046;-86
2022/01/05 01:46:54;;;;;;;1.55;1.45;;;8.80;61.00;;;7.32;66.51;99289.66;8396514;28;20115;-87
2022/01/05 01:51:17;;;;;;;1.40;1.20;;;8.80;60.80;;;7.27;66.25;99276.13;8413778;28;20052;-86
2022/01/05 01:55:40;;;;;;;1.77;1.27;;;8.80;60.60;;;6.94;66.39;99233.25;8412707;28;20110;-87
2022/01/05 02:00:06;;;;;;;0.95;0.93;;;8.70;60.50;;;7.18;65.91;99281.91;8413921;28;20119;-86
2022/01/05 02:04:35;;;;;;;1.65;1.05;;;8.70;60.60;;;7.14;65.91;99285.63;8403807;28;20286;-86
2022/01/05 02:08:58;;;;;;;1.20;1.10;;;8.70;60.80;;;6.98;66.44;99258.06;8391345;28;20032;-86
2022/01/05 02:13:20;;;;;;;0.90;0.90;;;8.50;60.80;;;7.03;66.38;99245.63;8394631;28;20029;-86
2022/01/05 02:22:18;;;;;;;1.20;1.10;;;8.60;61.30;;;6.87;66.41;99229.38;8397684;28;20060;-86
2022/01/05 02:26:41;;;;;;;1.88;0.98;;;8.60;61.30;;;7.09;66.23;99273.78;8413666;28;20120;-86
2022/01/05 02:31:04;;;;;;;1.40;0.88;;;8.60;61.30;;;7.01;66.06;99263.06;8406854;28;20047;-87
2022/01/05 02:35:26;;;;;;;1.17;1.08;;;8.60;61.40;;;6.99;66.06;99254.53;8394092;28;20032;-86
2022/01/05 02:39:47;;;;;;;1.20;1.13;;;8.60;61.50;;;7.04;66.16;99273.22;8416455;28;20123;-86
2022/01/05 02:44:09;;;;;;;1.33;1.20;;;8.60;61.50;;;7.04;66.07;99281.00;8400390;28;20413;-86
2022/01/05 02:48:32;;;;;;;1.77;1.17;;;8.60;61.50;;;7.12;66.15;99295.28;8414875;28;20036;-87
2022/01/05 02:52:54;;;;;;;1.30;1.20;;;8.60;61.50;;;6.87;66.29;99263.09;8401404;28;20028;-87
2022/01/05 02:57:15;;;;;;;2.28;1.10;;;8.60;61.50;;;6.88;66.37;99269.94;8394555;28;20159;-87
2022/01/05 03:01:38;;;;;;;1.60;1.10;;;8.60;61.50;;;6.95;66.05;99292.00;8398486;28;20028;-87
2022/01/05 03:06:00;;;;;;;1.20;0.88;;;8.60;61.50;;;6.95;66.51;99292.00;8420112;28;20111;-87
2022/01/05 03:10:22;;;;;;;1.05;0.85;;;8.60;61.40;;;6.98;66.29;99304.78;8397989;28;20035;-86
2022/01/05 03:14:43;;;;;;;1.80;0.80;;;8.50;61.30;;;6.87;66.48;99281.28;8415132;28;20095;-86
2022/01/05 03:19:05;;;;;;;1.63;0.82;;;8.50;60.80;;;6.76;66.49;99268.97;8406396;28;20119;-85
2022/01/05 03:23:27;;;;;;;2.72;0.70;;;8.50;60.60;;;6.76;66.25;99270.75;8428010;28;20809;-85
2022/01/05 03:27:51;;;;;;;0.70;0.70;;;8.40;60.30;;;6.72;66.28;99266.66;8396797;28;20044;-85
2022/01/05 03:32:13;;;;;;;3.50;1.05;;;8.40;60.20;;;6.68;66.53;99284.19;8403636;28;20038;-86
2022/01/05 03:36:35;;;;;;;1.05;0.63;;;8.30;60.00;;;6.66;66.16;99296.41;8412242;28;20115;-85
2022/01/05 03:40:57;;;;;;;0.70;0.70;;;8.20;59.90;;;6.49;65.99;99268.94;8395851;28;20119;-85
2022/01/05 03:45:19;;;;;;;1.23;0.73;;;8.20;60.00;;;6.49;66.17;99284.50;8423694;28;20036;-86
2022/01/05 03:49:41;;;;;;;1.10;0.80;;;8.20;60.30;;;6.40;66.01;99277.28;8410184;28;20032;-86
2022/01/05 03:54:02;;;;;;;4.47;0.50;;;8.10;60.10;;;6.36;66.01;99278.38;8395219;28;20107;-85
2022/01/05 03:58:24;;;;;;;1.67;0.57;;;8.20;60.20;;;6.49;66.18;99305.22;8413995;28;20107;-85
2022/01/05 04:02:46;;;;;;;1.40;0.70;;;8.00;60.10;;;6.36;66.52;99289.59;8423357;28;20123;-86
2022/01/05 04:07:08;;;;;;;1.27;0.60;;;8.00;60.20;;;6.31;66.44;99283.03;8425637;28;20118;-85
2022/01/05 04:11:30;;;;;;;1.60;0.70;;;8.00;60.20;;;6.31;66.05;99283.03;8421814;28;20126;-85
2022/01/05 04:15:52;;;;;;;0.70;0.50;;;7.90;60.10;;;6.39;65.97;99304.94;8401657;28;20567;-85
2022/01/05 04:20:16;;;;;;;0.98;0.55;;;7.90;60.10;;;6.33;66.46;99302.75;8403206;28;20114;-85
2022/01/05 04:24:38;;;;;;;3.17;0.80;;;7.90;60.20;;;6.31;66.01;99301.16;8409345;28;20571;-86
2022/01/05 04:29:00;;;;;;;1.08;0.70;;;7.90;60.30;;;6.27;66.21;99299.69;8390539;28;20040;-86
2022/01/05 04:33:22;;;;;;;0.60;0.60;;;7.90;60.50;;;6.29;65.98;99315.97;8398541;28;20415;-85
2022/01/05 04:37:43;;;;;;;0.50;0.50;;;7.80;60.40;;;6.22;66.32;99304.31;8427307;28;20107;-85
2022/01/05 04:42:05;;;;;;;4.65;0.93;;;7.70;60.30;;;6.26;65.81;99327.34;8412004;28;20111;-86
2022/01/05 04:46:27;;;;;;;1.02;0.82;;;7.80;60.40;;;6.16;66.15;99310.72;8414167;28;20038;-86
2022/01/05 04:50:49;;;;;;;2.00;0.63;;;7.80;60.50;;;6.22;66.59;99318.13;8408560;28;20036;-86
2022/01/05 04:55:11;;;;;;;1.17;0.57;;;7.80;60.60;;;6.10;66.29;99303.28;8406309;28;20534;-85
2022/01/05 04:59:34;;;;;;;1.27;0.90;;;7.80;60.60;;;6.17;66.23;99328.75;8379934;28;20114;-86
2022/01/05 05:03:56;;;;;;;1.40;0.73;;;7.70;60.50;;;6.17;66.50;99352.06;8398084;28;20130;-85
2022/01/05 05:08:17;;;;;;;1.88;0.60;;;7.70;60.50;;;6.08;66.41;99324.13;8405803;28;20048;-85
2022/01/05 05:12:39;;;;;;;1.88;0.70;;;7.70;60.50;;;6.02;65.93;99324.47;8412599;28;20115;-85
2022/01/05 05:17:01;;;;;;;1.13;0.65;;;7.70;60.60;;;6.09;66.37;99337.91;8409080;28;20115;-82
2022/01/05 05:21:22;;;;;;;1.05;0.82;;;7.70;60.60;;;5.96;66.13;99286.78;8388231;28;20123;-87
2022/01/05 05:25:44;;;;;;;2.78;0.70;;;7.70;60.70;;;6.12;66.61;99285.88;8398502;28;20584;-84
2022/01/05 05:30:07;;;;;;;1.85;1.02;;;7.70;60.70;;;6.06;66.22;99288.84;8423471;28;20038;-85
2022/01/05 05:34:28;;;;;;;1.50;0.77;;;7.70;60.60;;;6.10;66.01;99286.00;8400533;28;20036;-84
2022/01/05 05:38:50;;;;;;;0.47;0.47;;;7.70;60.70;;;5.97;66.35;99265.16;8400367;28;20032;-86
2022/01/05 05:43:12;;;;;;;2.72;0.75;;;7.60;60.60;;;5.90;66.46;99268.16;8410196;28;20038;-85
2022/01/05 05:47:34;;;;;;;1.85;0.80;;;7.60;60.70;;;6.01;66.28;99278.75;8388435;28;20059;-83
2022/01/05 05:51:56;;;;;;;2.55;0.60;;;7.70;60.80;;;6.00;66.46;99282.28;8397483;28;20046;-85
2022/01/05 05:56:17;;;;;;;1.00;0.90;;;7.60;60.70;;;5.94;66.23;99277.44;8393204;28;20058;-80
2022/01/05 06:00:39;;;;;;;0.70;0.70;;;7.60;60.60;;;6.09;66.10;99314.59;8423453;28;20031;-79
2022/01/05 06:05:01;;;;;;;4.15;1.48;;;7.90;60.90;;;6.05;65.96;99321.72;8394607;28;20123;-80
2022/01/05 06:09:23;;;;;;;1.08;0.73;;;7.70;60.60;;;6.05;66.13;99326.91;8390054;28;20040;-80
2022/01/05 06:13:44;;;;;;;1.33;0.60;;;7.60;60.60;;;5.77;66.31;99287.00;8410792;28;20381;-80
2022/01/05 06:18:06;;;;;;;0.70;0.60;;;7.60;60.60;;;5.95;66.28;99320.59;8393179;28;20119;-80
2022/01/05 06:22:28;;;;;;;5.55;1.05;;;7.60;60.60;;;5.92;66.38;99321.56;8405183;28;20533;-84
2022/01/05 06:26:51;;;;;;;0.70;0.70;;;7.60;60.60;;;5.97;66.34;99326.53;8398405;28;20123;-83
2022/01/05 06:31:13;;;;;;;1.70;0.82;;;7.60;60.60;;;5.83;65.85;99306.53;8408855;28;20039;-83
2022/01/05 06:35:35;;;;;;;1.95;1.15;;;7.50;60.50;;;5.92;66.16;99326.75;8415880;28;20123;-81
2022/01/05 06:39:57;;;;;;;0.90;0.90;;;7.50;60.60;;;5.84;66.59;99320.34;8410189;28;20118;-81
2022/01/05 06:44:20;;;;;;;2.33;0.60;;;7.50;60.60;;;5.90;66.37;99338.94;8408434;28;20122;-83
2022/01/05 06:48:41;;;;;;;0.95;0.60;;;7.50;60.70;;;5.86;66.12;99354.75;8423543;28;20503;-80
2022/01/05 06:53:03;;;;;;;1.40;0.93;;;7.50;60.70;;;5.79;66.41;99351.69;8401237;28;20119;-81
2022/01/05 06:57:25;;;;;;;0.90;0.80;;;7.50;60.70;;;5.88;66.03;99381.41;8395709;28;20118;-81
2022/01/05 07:01:47;;;;;;;3.28;0.95;;;7.50;60.70;;;5.76;65.87;99367.41;8398484;28;20115;-81
2022/01/05 07:06:08;;;;;;;1.23;0.88;;;7.50;60.70;;;5.67;66.47;99355.84;8410554;28;20553;-81
2022/01/05 07:10:30;;;;;;;2.15;0.90;;;7.40;60.60;;;5.64;66.48;99374.09;8418070;28;20040;-81
2022/01/05 07:14:52;;;;;;;2.15;1.23;;;7.30;60.50;;;5.72;66.08;99404.75;8404092;28;20027;-81
2022/01/05 07:19:14;;;;;;;2.55;0.82;;;7.40;60.60;;;5.64;66.45;99391.41;8408593;28;20126;-81
2022/01/05 07:23:35;;;;;;;1.40;0.98;;;7.30;60.60;;;5.62;66.32;99390.69;8396471;28;20046;-83
2022/01/05 07:27:57;;;;;;;2.00;0.80;;;7.30;60.60;;;5.53;66.62;99384.25;8424598;28;20119;-82
2022/01/05 07:32:19;;;;;;;0.98;0.88;;;7.50;60.90;;;5.52;66.09;99390.34;8400147;28;20114;-84
2022/01/05 07:36:41;;;;;;;0.90;0.75;;;7.30;60.80;;;5.52;66.23;99391.19;8422647;28;20107;-83
2022/01/05 07:41:03;;;;;;;2.10;0.80;;;7.20;60.70;;;5.42;66.33;99371.06;8412304;28;20114;-82
2022/01/05 07:45:24;;;;;;;0.80;0.80;;;7.20;61.50;;;5.46;66.28;99376.00;8405961;28;20038;-83
2022/01/05 07:49:46;;;;;;;3.75;1.08;;;7.20;60.80;;;5.49;66.58;99391.34;8416445;28;20046;-84
2022/01/05 07:54:08;;;;;;;1.08;0.85;;;7.20;60.90;;;5.59;66.18;99411.53;8426553;28;20186;-84
2022/01/05 07:58:30;;;;;;;0.82;0.80;;;7.20;60.90;;;5.60;66.22;99415.81;8410821;28;20114;-83
2022/01/05 08:02:51;;;;;;;2.47;1.02;;;7.20;60.90;;;5.39;66.33;99387.59;8416335;28;20130;-83
2022/01/05 08:07:13;;;;;;;1.90;0.98;;;7.20;61.00;;;5.50;66.48;99403.38;8419413;28;20122;-83
2022/01/05 08:11:35;;;;;;;0.75;0.70;;;7.20;61.00;;;5.55;66.68;99406.53;8401114;28;20036;-84
2022/01/05 08:15:57;;;;;;;1.63;1.00;;;7.20;61.10;;;5.37;66.32;99386.00;8394444;28;20713;-84
2022/01/05 08:20:19;;;;;;;1.67;0.90;;;7.20;61.10;;;5.55;66.27;99416.06;8420854;28;20122;-84
2022/01/05 08:24:40;;;;;;;1.77;0.90;;;7.20;61.00;;;5.49;66.71;99406.06;8404450;28;20115;-83
2022/01/05 08:29:02;;;;;;;2.28;0.90;;;7.20;61.00;;;5.53;66.20;99413.53;8408968;28;20400;-83
2022/01/05 08:33:25;;;;;;;0.68;0.68;;;7.10;60.90;;;5.45;66.63;99389.00;8404181;28;20595;-83
2022/01/05 08:37:48;;;;;;;2.63;1.48;;;7.10;61.00;;;5.56;66.17;99402.19;8405179;28;20540;-82
2022/01/05 08:42:10;;;;;;;1.50;0.77;;;7.20;61.10;;;5.61;66.40;99426.06;8400393;28;20501;-82
2022/01/05 08:46:31;;;;;;;3.97;1.20;;;7.30;61.20;;;5.65;66.42;99430.19;8402111;28;20465;-82
2022/01/05 08:50:53;;;;;;;1.50;0.85;;;7.30;61.10;;;5.44;66.55;99398.53;8421291;28;20520;-83
2022/01/05 08:55:19;;;;;;;1.67;0.90;;;7.30;61.10;;;5.68;66.54;99437.78;8403799;28;20123;-82
2022/01/05 08:59:40;;;;;;;2.90;0.93;;;7.30;61.00;;;5.70;66.78;99435.94;8414014;28;20145;-81
2022/01/05 09:04:02;;;;;;;2.28;1.13;;;7.30;60.90;;;5.59;66.57;99425.34;8384154;28;20138;-81
2022/01/05 09:08:24;;;;;;;2.37;1.30;;;7.30;60.80;;;5.62;66.46;99435.53;8417824;28;20123;-82
2022/01/05 09:12:46;;;;;;;2.03;0.98;;;7.60;61.30;;;5.60;66.70;99424.41;8413250;28;20490;-82
2022/01/05 09:17:08;;;;;;;1.20;0.95;;;7.30;60.70;;;5.63;66.40;99439.78;8397822;28;20122;-82
2022/01/05 09:21:30;;;;;;;2.47;1.05;;;7.40;60.70;;;5.60;66.77;99439.94;8396533;28;20036;-82
2022/01/05 09:25:51;;;;;;;2.28;1.10;;;7.30;60.60;;;5.59;66.54;99458.16;8438875;28;20126;-82
2022/01/05 09:30:15;;;;;;;3.00;1.30;;;7.10;60.40;;;5.70;66.66;99471.38;8398610;28;20123;-81
2022/01/05 09:34:39;;;;;;;2.33;1.10;;;7.30;60.60;;;5.59;66.14;99451.25;8398657;28;20111;-80
2022/01/05 09:43:53;;;;;;;1.08;1.00;;;7.40;60.60;;;5.63;66.81;99455.31;8425526;28;20482;-82
2022/01/05 09:48:40;;;;;;;0.90;0.90;;;7.40;60.60;;;5.62;66.67;99443.31;8403969;28;20126;-82
2022/01/05 09:53:04;;;;;;;2.25;1.52;;;7.40;60.70;;;5.71;66.65;99463.50;8419223;28;20122;-82
2022/01/05 09:57:27;;;;;;;2.75;1.30;;;7.40;60.60;;;5.61;66.36;99445.97;8416945;28;20119;-82
2022/01/05 10:01:48;;;;;;;1.20;1.00;;;7.50;60.90;;;5.90;66.65;99484.03;8421592;28;20574;-87
2022/01/05 10:06:12;;;;;;;2.95;1.20;;;7.50;60.70;;;5.76;66.80;99451.13;8412543;28;20130;-82
2022/01/05 10:10:34;;;;;;;4.95;1.40;;;7.50;60.60;;;5.91;66.42;99464.13;8397038;28;20030;-82
2022/01/05 10:14:55;;;;;;;3.92;1.27;;;7.60;60.70;;;6.01;66.27;99461.91;8386460;28;20031;-82
2022/01/05 10:19:21;;;;;;;2.42;1.23;;;7.70;60.60;;;5.97;66.74;99437.94;8401812;28;20473;-80
2022/01/05 10:23:50;;;;;;;2.53;1.73;;;7.70;60.50;;;6.06;66.65;99450.34;8411235;28;20119;-83
2022/01/05 10:28:12;;;;;;;1.40;1.15;;;7.90;60.50;;;6.32;66.98;99482.56;8409328;28;20130;-82
2022/01/05 10:32:35;;;;;;;5.25;1.52;;;7.80;60.30;;;6.33;66.97;99475.59;8401514;28;20038;-81
2022/01/05 10:37:03;;;;;;;1.70;1.13;;;7.90;59.70;;;6.28;66.41;99468.09;8414606;28;20396;-81
2022/01/05 10:41:27;;;;;;;2.95;2.00;;;8.00;59.70;;;6.26;66.37;99464.75;8383451;28;20119;-81
2022/01/05 10:45:52;;;;;;;3.47;1.70;;;8.00;59.60;;;6.31;66.73;99462.72;8388912;28;20128;-81
2022/01/05 10:50:19;;;;;;;1.45;1.35;;;8.00;59.40;;;6.27;66.19;99457.81;8396318;28;20084;-80
2022/01/05 10:54:41;;;;;;;2.13;1.20;;;7.90;59.20;;;6.31;65.93;99459.31;8416734;28;20115;-80
2022/01/05 10:59:03;;;;;;;3.10;1.00;;;8.00;59.20;;;6.28;66.36;99465.50;8438850;28;20463;-81
2022/01/05 11:03:38;;;;;;;3.95;1.20;;;8.10;59.10;;;6.37;66.44;99474.50;8403587;28;20126;-80
2022/01/05 11:08:09;;;;;;;4.40;1.42;;;8.00;58.90;;;6.35;66.00;99472.00;8413324;28;20040;-81
2022/01/05 11:12:37;;;;;;;1.85;1.08;;;8.00;59.00;;;6.41;66.04;99482.00;8393336;28;20484;-81
2022/01/05 11:17:05;;;;;;;1.55;1.15;;;8.00;58.80;;;6.30;66.36;99460.25;8399459;28;20509;-81
2022/01/05 11:21:27;;;;;;;4.25;1.83;;;8.10;58.90;;;6.43;65.94;99472.41;8410122;28;20469;-82
2022/01/05 11:25:50;;;;;;;2.28;1.10;;;8.10;58.50;;;6.36;65.91;99446.91;8418013;28;20499;-81
2022/01/05 11:30:12;;;;;;;3.80;1.42;;;8.10;58.80;;;6.36;65.96;99445.16;8387920;28;20539;-81
2022/01/05 11:34:34;;;;;;;4.18;1.10;;;8.10;58.60;;;6.40;65.97;99461.38;8404488;28;20392;-81
2022/01/05 11:38:56;;;;;;;4.20;2.03;;;8.00;58.50;;;6.49;65.41;99465.19;8415794;28;20115;-80
2022/01/05 11:43:32;;;;;;;5.13;1.20;;;8.10;58.50;;;6.46;66.25;99442.03;8410736;28;20445;-80
2022/01/05 11:48:12;;;;;;;;;;;8.10;58.40;;;6.54;65.94;99453.63;8407152;28;20028;-81
2022/01/05 11:53:08;;;;;;;1.60;1.27;;;8.10;58.50;;;6.42;65.97;99429.22;8401442;28;19923;-79
2022/01/05 11:57:29;;;;;;;1.92;1.15;;;8.20;57.90;;;6.49;65.94;99439.25;8419970;28;20031;-81
2022/01/05 12:02:05;;;;;;;1.75;1.40;;;8.20;58.40;;;6.29;65.73;99406.69;8409645;28;20573;-81
2022/01/05 12:06:44;;;;;;;2.67;1.80;;;8.20;58.10;;;6.42;65.31;99430.97;8404174;28;20463;-82
2022/01/05 12:11:25;;;;;;;1.77;1.02;;;8.20;58.10;;;6.44;65.84;99436.91;8411928;28;20038;-82
2022/01/05 12:15:56;;;;;;;4.47;1.55;;;8.20;58.10;;;6.44;65.70;99439.50;8411546;28;20114;-81
2022/01/05 12:20:18;;;;;;;2.92;1.40;;;8.20;57.60;;;6.50;65.64;99440.91;8400315;28;20110;-82
2022/01/05 12:25:05;;;;;;;4.28;1.52;;;8.20;58.10;;;6.57;65.82;99442.22;8405836;28;20040;-80
2022/01/05 12:29:30;;;;;;;3.08;0.90;;;8.10;57.70;;;6.59;65.25;99435.19;8414806;28;20032;-83
2022/01/05 12:33:52;;;;;;;3.38;1.13;;;8.20;57.90;;;6.57;65.61;99421.47;8408244;28;20115;-81
2022/01/05 12:38:54;;;;;;;1.60;1.10;;;8.30;58.10;;;6.56;65.25;99422.38;8410932;28;20130;-82
2022/01/05 12:43:27;;;;;;;2.38;1.15;;;8.30;57.50;;;6.50;65.48;99414.97;8408757;28;20550;-80
2022/01/05 12:47:49;;;;;;;1.80;1.08;;;8.30;57.80;;;6.70;65.18;99447.50;8402725;28;20258;-81
2022/01/05 12:52:14;;;;;;;2.65;1.70;;;8.40;58.10;;;6.64;65.17;99439.19;8419430;28;20042;-82
2022/01/05 12:56:42;;;;;;;;;;;8.30;57.60;;;6.69;65.23;99445.84;8414030;28;20485;-83
2022/01/05 13:01:04;;;;;;;3.35;1.50;;;8.30;57.70;;;6.67;65.01;99434.72;8427771;28;20010;-83
2022/01/05 13:05:30;;;;;;;3.15;1.50;;;8.20;57.90;;;6.68;65.25;99433.81;8412461;28;20556;-81
2022/01/05 13:09:54;;;;;;;3.17;1.20;;;8.30;57.80;;;6.63;65.36;99413.31;8432757;28;20044;-81
2022/01/05 13:14:31;;;;;;;4.78;1.65;;;8.40;58.00;;;6.59;65.25;99414.44;8376721;28;20039;-84
2022/01/05 13:18:52;;;;;;;3.10;1.80;;;8.40;57.70;;;6.61;64.83;99413.41;8391516;28;20036;-83
2022/01/05 13:23:14;;;;;;;3.60;1.20;;;8.40;58.00;;;6.55;65.23;99407.75;8390985;28;20044;-82
2022/01/05 13:27:44;;;;;;;3.28;1.55;;;8.40;57.90;;;6.71;65.08;99436.22;8389445;28;20499;-85
2022/01/05 13:32:10;;;;;;;7.85;1.95;;;8.30;57.50;;;6.62;64.80;99424.63;8378959;28;20032;-81
2022/01/05 13:36:32;;;;;;;2.65;1.40;;;8.50;57.80;;;6.58;65.10;99413.59;8391893;28;20028;-86
2022/01/05 13:40:55;;;;;;;3.90;1.58;;;8.30;57.80;;;6.69;65.24;99435.47;8408157;28;20035;-82
2022/01/05 13:45:24;;;;;;;2.63;1.77;;;8.40;57.90;;;6.60;64.83;99432.50;8402988;28;20043;-82
2022/01/05 13:50:10;;;;;;;2.70;1.50;;;8.40;57.60;;;6.68;64.60;99436.41;8395581;28;20039;-82
2022/01/05 13:54:35;;;;;;;1.90;1.30;;;8.30;57.60;;;6.63;65.30;99444.44;8421665;28;20044;-82
2022/01/05 13:59:02;;;;;;;2.25;1.55;;;8.30;57.90;;;6.60;64.86;99439.44;8418386;28;20523;-80
2022/01/05 14:03:25;;;;;;;1.92;1.30;;;8.30;58.00;;;6.61;65.06;99431.56;8383840;28;20058;-81
2022/01/05 14:08:08;;;;;;;2.53;1.38;;;8.30;57.60;;;6.57;64.88;99431.84;8429616;28;20035;-82
2022/01/05 14:12:36;;;;;;;2.63;1.52;;;8.30;57.80;;;6.56;64.68;99412.88;8416982;28;20526;-82
2022/01/05 14:16:58;;;;;;;1.33;1.20;;;8.30;57.70;;;6.51;64.83;99414.91;8392267;28;20032;-81
2022/01/05 14:21:28;;;;;;;2.88;1.83;;;8.20;57.80;;;6.62;64.87;99435.00;8409995;28;20044;-82
2022/01/05 14:26:00;;;;;;;4.07;1.48;;;8.30;57.50;;;6.53;64.93;99426.00;8400017;28;20039;-81
2022/01/05 14:30:31;;;;;;;4.68;1.58;;;8.20;57.60;;;6.59;64.80;99440.38;8411886;28;20055;-82
2022/01/05 14:34:54;;;;;;;3.55;1.38;;;8.20;57.60;;;6.53;64.56;99441.56;8393423;28;20647;-82
2022/01/05 14:39:20;;;;;;;1.73;1.27;;;8.20;57.50;;;6.55;64.69;99450.09;8382045;28;20039;-82
2022/01/05 14:44:09;;;;;;;2.97;1.65;;;8.30;57.70;;;6.36;64.56;99408.84;8399168;28;20046;-82
2022/01/05 14:48:30;;;;;;;6.25;1.40;;;8.20;57.50;;;6.56;64.96;99454.38;8378371;28;20028;-80
2022/01/05 14:52:52;;;;;;;3.45;1.33;;;8.20;57.50;;;6.42;64.71;99443.94;8414097;28;20040;-82
2022/01/05 14:57:20;;;;;;;3.78;1.30;;;8.20;57.90;;;6.49;64.38;99457.41;8386089;28;20040;-82
2022/01/05 15:01:43;;;;;;;4.95;1.20;;;8.10;58.10;;;6.48;64.61;99469.53;8384574;28;20130;-82
2022/01/05 15:06:04;;;;;;;5.15;2.78;;;8.10;58.30;;;6.43;64.47;99461.19;8413195;28;20616;-82
2022/01/05 15:10:26;;;;;;;2.08;1.77;;;8.10;58.40;;;6.36;64.66;99439.13;8397429;28;20043;-82
2022/01/05 15:14:48;;;;;;;1.15;1.00;;;8.10;58.60;;;6.40;64.65;99462.22;8402766;28;20042;-83
2022/01/05 15:19:09;;;;;;;3.17;1.17;;;8.00;58.60;;;6.24;64.68;99445.00;8379386;28;20306;-83
2022/01/05 15:23:31;;;;;;;3.00;1.35;;;8.00;58.60;;;6.27;64.70;99465.59;8393024;28;20032;-82
2022/01/05 15:27:53;;;;;;;3.58;1.35;;;8.00;58.60;;;6.24;64.71;99452.78;8385391;28;20044;-81
2022/01/05 15:32:15;;;;;;;1.83;1.27;;;7.90;58.50;;;6.29;65.26;99480.16;8392829;28;20048;-83
2022/01/05 15:36:37;;;;;;;4.22;1.30;;;7.90;58.80;;;6.24;64.92;99476.97;8403439;28;20404;-83
2022/01/05 15:40:58;;;;;;;3.08;1.20;;;7.90;58.90;;;6.03;64.72;99445.34;8379393;28;20040;-83
2022/01/05 15:45:20;;;;;;;2.15;1.60;;;7.90;59.00;;;6.26;64.83;99475.13;8386830;28;20503;-84
2022/01/05 15:49:42;;;;;;;6.97;1.77;;;7.90;58.90;;;6.17;65.13;99463.53;8401491;28;20036;-81
2022/01/05 15:54:05;;;;;;;6.82;3.58;;;7.90;58.90;;;6.25;64.78;99473.44;8391071;28;20036;-82
2022/01/05 16:02:49;;;;;;;3.97;2.17;;;7.80;58.90;;;6.14;64.97;99471.47;8395609;28;20078;-81
2022/01/05 16:07:12;;;;;;;2.03;1.67;;;8.00;59.00;;;6.12;65.28;99470.72;8398604;28;20757;-81
2022/01/05 16:11:35;;;;;;;2.95;2.10;;;7.80;59.10;;;6.09;64.67;99473.50;8409404;28;20039;-81
2022/01/05 16:15:56;;;;;;;3.05;1.95;;;7.80;59.20;;;6.09;65.16;99488.22;8380069;28;20035;-80
2022/01/05 16:20:19;;;;;;;2.83;1.95;;;7.80;59.30;;;6.02;65.37;99486.88;8409502;28;20527;-82
2022/01/05 16:24:41;;;;;;;2.60;2.22;;;7.80;59.30;;;6.04;65.27;99500.59;8388221;28;20032;-82
2022/01/05 16:29:03;;;;;;;3.38;1.85;;;7.70;59.40;;;6.00;64.91;99496.53;8379436;28;20050;-81
2022/01/05 16:33:25;;;;;;;2.35;2.15;;;7.50;59.40;;;5.86;65.45;99481.69;8411247;28;20046;-81
2022/01/05 16:37:46;;;;;;;2.10;1.70;;;7.60;59.50;;;5.84;65.07;99491.31;8381450;28;20040;-81
2022/01/05 16:42:08;;;;;;;3.47;1.83;;;7.50;59.50;;;5.86;65.66;99497.22;8406333;28;20040;-81
2022/01/05 16:46:36;;;;;;;3.10;2.10;;;7.50;59.60;;;5.80;65.54;99495.81;8418461;28;20563;-81
2022/01/05 16:50:58;;;;;;;3.38;1.70;;;7.50;59.70;;;5.83;65.53;99494.81;8392036;28;20066;-81
2022/01/05 16:55:22;;;;;;;1.70;1.60;;;7.50;59.80;;;5.81;65.14;99504.44;8416947;28;20032;-81
2022/01/05 17:04:27;;;;;;;2.13;1.30;;;7.40;59.80;;;5.79;65.65;99493.31;8396662;28;20047;-80
2022/01/05 17:08:49;;;;;;;2.20;1.80;;;7.40;59.80;;;5.66;65.17;99481.03;8394043;28;20047;-81
2022/01/05 17:13:17;;;;;;;2.22;1.60;;;7.40;60.00;;;5.66;65.28;99485.38;8386385;28;20086;-81
2022/01/05 17:17:44;;;;;;;1.70;1.33;;;7.40;60.00;;;5.69;65.37;99493.00;8394058;28;20484;-81
2022/01/05 17:22:07;;;;;;;1.63;1.52;;;7.40;60.20;;;5.77;65.58;99508.94;8374126;28;20035;-81
2022/01/05 17:26:29;;;;;;;3.60;1.85;;;7.40;60.20;;;5.83;65.10;99507.75;8401640;28;20431;-81
2022/01/05 17:30:50;;;;;;;1.67;1.58;;;7.40;60.40;;;5.74;65.92;99486.63;8401519;28;20054;-83
2022/01/05 17:35:14;;;;;;;1.60;1.50;;;7.30;60.50;;;5.59;65.78;99473.69;8385060;28;20066;-84
2022/01/05 17:39:36;;;;;;;1.45;1.35;;;7.40;60.60;;;5.85;65.94;99524.06;8400408;28;20051;-80
2022/01/05 17:44:02;;;;;;;1.80;1.40;;;7.40;60.60;;;5.82;65.60;99513.88;8423340;28;20042;-80
2022/01/05 17:48:26;;;;;;;1.75;1.65;;;7.40;60.90;;;5.76;65.59;99504.69;8397744;28;20465;-82
2022/01/05 17:52:47;;;;;;;2.08;1.75;;;7.50;60.90;;;5.81;65.38;99504.44;8386324;28;20043;-81
2022/01/05 17:57:12;;;;;;;2.47;1.70;;;7.50;60.90;;;5.79;65.54;99508.88;8395956;28;20569;-81
2022/01/05 18:01:34;;;;;;;3.78;1.50;;;7.50;61.10;;;5.77;66.03;99508.94;8399817;28;20031;-81
2022/01/05 18:05:56;;;;;;;2.83;1.63;;;7.50;61.10;;;5.86;65.80;99521.41;8374774;28;20104;-82
2022/01/05 18:10:18;;;;;;;4.15;2.25;;;7.60;61.30;;;5.92;65.89;99530.59;8383332;28;20055;-82
2022/01/05 18:14:40;;;;;;;2.58;2.10;;;7.60;61.30;;;6.04;65.76;99536.88;8398699;28;20031;-81
2022/01/05 18:19:02;;;;;;;3.50;2.25;;;7.60;61.30;;;5.98;65.85;99530.28;8398370;28;20038;-81
2022/01/05 18:23:24;;;;;;;2.55;1.95;;;7.60;61.50;;;6.09;66.03;99543.47;8404495;28;20050;-81
2022/01/05 18:27:46;;;;;;;2.63;1.95;;;7.70;61.60;;;6.13;65.75;99555.34;8386723;28;20101;-81
2022/01/05 18:32:09;;;;;;;3.15;1.50;;;7.70;61.50;;;6.16;65.66;99567.31;8384099;28;20036;-81
2022/01/05 18:36:33;;;;;;;2.17;1.45;;;7.80;61.50;;;6.13;66.01;99554.50;8385606;28;20032;-82
2022/01/05 18:40:55;;;;;;;3.53;1.58;;;7.70;61.60;;;6.21;65.69;99565.25;8399382;28;20423;-82
2022/01/05 18:45:16;;;;;;;4.05;1.75;;;7.80;61.70;;;6.11;66.15;99548.56;8392978;28;20039;-82
2022/01/05 18:49:54;;;;;;;4.30;1.88;;;7.90;61.70;;;6.23;65.73;99578.16;8443848;27;20473;-80
2022/01/05 18:54:16;;;;;;;2.20;1.85;;;7.90;61.70;;;6.28;66.14;99596.88;8391032;28;20489;-82
2022/01/05 18:58:39;;;;;;;3.03;1.40;;;7.90;61.60;;;6.32;65.53;99599.22;8370387;28;20025;-82
2022/01/05 19:03:00;;;;;;;2.20;1.60;;;8.00;61.60;;;6.42;65.63;99604.72;8383538;28;20041;-82
2022/01/05 19:07:22;;;;;;;2.65;1.52;;;8.00;61.70;;;6.44;66.32;99618.44;8363584;28;20034;-84
2022/01/05 19:11:44;;;;;;;2.35;2.15;;;8.00;61.60;;;6.48;66.43;99616.50;8371129;28;20040;-82